Terminal Aerodrome Forecast
Issued by NWS

Home | Current Version | Previous Version | Text Only | Print | Product List | Glossary On
Versions: 1 2 3 4 5 6 7 8 9 10 11 12 13 14 15 16 17 18 19 20 21 22 23 24 25 26 27 28
000
FTUS43 KFGF 191742 AAA
TAFTVF
TAF AMD
KTVF 191742Z 1918/2018 14020G28KT P6SM SCT040
     FM191900 14021G29KT P6SM BKN040
     FM200200 13020G31KT P6SM VCTS OVC025CB
      TEMPO 2002/2003 4SM TSRA OVC007CB
     FM200500 14016G24KT P6SM VCTS OVC020CB
     FM200700 22012KT P6SM OVC020
     FM201100 23010KT P6SM BKN025
     FM201400 25011KT P6SM SCT080=

USA.gov is the U.S. government's official web portal to all federal, state and local government web resources and services.